createdAt,value
2017-08-05T00:01:34.917Z,63.00
2017-08-05T00:04:02.481Z,62.80
2017-08-05T00:06:30.035Z,63.80
2017-08-05T00:08:57.569Z,64.20
2017-08-05T00:11:25.190Z,64.50
2017-08-05T00:13:52.726Z,64.40
2017-08-05T00:16:20.276Z,65.20
2017-08-05T00:18:47.814Z,66.60
2017-08-05T00:21:15.386Z,66.70
2017-08-05T00:23:42.922Z,66.90
2017-08-05T00:26:10.497Z,67.40
2017-08-05T00:28:39.494Z,67.70
2017-08-05T00:31:07.108Z,68.70
2017-08-05T00:33:35.428Z,68.70
2017-08-05T00:36:03.592Z,68.70
2017-08-05T00:38:31.150Z,70.00
2017-08-05T00:40:58.730Z,71.40
2017-08-05T00:43:26.281Z,70.90
2017-08-05T00:45:53.817Z,71.20
2017-08-05T00:48:21.362Z,72.50
2017-08-05T00:50:48.917Z,72.30
2017-08-05T00:53:17.138Z,71.40
2017-08-05T00:55:44.669Z,72.10
2017-08-05T00:58:12.223Z,72.70
2017-08-05T01:00:39.757Z,72.40
2017-08-05T01:03:07.323Z,73.30
2017-08-05T01:05:34.879Z,73.10
2017-08-05T01:08:02.441Z,73.80
2017-08-05T01:10:30.761Z,77.00
2017-08-05T01:12:58.346Z,77.00
2017-08-05T01:15:25.867Z,76.60
2017-08-05T01:17:53.419Z,77.50
2017-08-05T01:20:20.989Z,76.80
2017-08-05T01:22:48.933Z,77.40
2017-08-05T01:25:16.500Z,76.40
2017-08-05T01:27:44.049Z,75.80
2017-08-05T01:30:11.628Z,76.90
2017-08-05T01:32:39.181Z,77.50
2017-08-05T01:35:06.748Z,76.70
2017-08-05T01:37:34.317Z,76.30
2017-08-05T01:40:01.900Z,78.10
2017-08-05T01:42:29.485Z,78.50
2017-08-05T01:44:57.063Z,78.50
2017-08-05T01:47:24.681Z,78.20
2017-08-05T01:49:52.245Z,78.90
2017-08-05T01:52:19.805Z,79.30
2017-08-05T01:54:47.354Z,79.80
2017-08-05T01:57:15.868Z,79.90
2017-08-05T01:59:43.418Z,80.60
2017-08-05T02:02:10.972Z,80.30
2017-08-05T02:04:38.634Z,80.70
2017-08-05T02:07:06.195Z,80.50
2017-08-05T02:09:33.730Z,80.40
2017-08-05T02:12:01.292Z,81.00
2017-08-05T02:14:30.286Z,81.10
2017-08-05T02:16:58.647Z,82.00
2017-08-05T02:19:26.195Z,82.00
2017-08-05T02:21:53.749Z,82.30
2017-08-05T02:24:21.346Z,82.40
2017-08-05T02:26:49.653Z,82.80
2017-08-05T02:29:17.265Z,82.70
2017-08-05T02:31:44.789Z,82.70
2017-08-05T02:34:12.385Z,82.80
2017-08-05T02:36:39.929Z,83.60
2017-08-05T02:39:07.514Z,83.70
2017-08-05T02:41:35.064Z,83.90
2017-08-05T02:44:02.638Z,83.60
2017-08-05T02:46:30.213Z,84.10
2017-08-05T02:48:57.782Z,84.10
2017-08-05T02:51:25.376Z,84.50
2017-08-05T02:53:52.929Z,85.10
2017-08-05T02:56:20.465Z,85.80
2017-08-05T02:58:48.037Z,86.10
2017-08-05T03:01:15.607Z,86.00
2017-08-05T03:03:43.185Z,85.70
2017-08-05T03:06:10.753Z,85.90
2017-08-05T03:08:38.336Z,85.70
2017-08-05T03:11:06.653Z,85.70
2017-08-05T03:13:34.220Z,85.70
2017-08-05T03:16:02.622Z,85.20
2017-08-05T03:18:30.195Z,85.60
2017-08-05T03:20:57.770Z,85.90
2017-08-05T03:23:25.307Z,86.80
2017-08-05T03:25:53.063Z,86.80
2017-08-05T03:28:20.604Z,87.00
2017-08-05T03:30:48.227Z,87.40
2017-08-05T03:33:15.785Z,87.30
2017-08-05T03:35:44.190Z,87.10
2017-08-05T03:38:12.222Z,86.60
2017-08-05T03:40:39.782Z,85.50
2017-08-05T03:43:07.366Z,84.80
2017-08-05T03:45:34.922Z,84.70
2017-08-05T03:48:02.525Z,84.90
2017-08-05T03:50:30.079Z,85.00
2017-08-05T03:52:57.659Z,85.60
2017-08-05T03:55:25.198Z,85.70
2017-08-05T03:57:52.786Z,86.20
2017-08-05T04:00:20.345Z,86.40
2017-08-05T04:02:47.933Z,86.40
2017-08-05T04:05:15.479Z,86.40
2017-08-05T04:07:43.037Z,86.60
2017-08-05T04:10:11.076Z,86.00
2017-08-05T04:12:38.670Z,86.30
2017-08-05T04:15:06.255Z,86.20
2017-08-05T04:17:33.798Z,85.70
2017-08-05T04:20:01.936Z,85.20
2017-08-05T04:22:29.469Z,84.60
2017-08-05T04:24:57.852Z,84.60
2017-08-05T04:27:25.425Z,83.90
2017-08-05T04:29:53.022Z,82.70
2017-08-05T04:32:20.591Z,82.20
2017-08-05T04:34:48.137Z,81.70
2017-08-05T04:37:16.444Z,79.90
2017-08-05T04:39:43.976Z,80.10
2017-08-05T04:42:11.561Z,79.10
2017-08-05T04:44:39.962Z,78.60
2017-08-05T04:47:07.523Z,78.40
2017-08-05T04:49:35.086Z,77.10
2017-08-05T04:52:02.673Z,76.10
2017-08-05T04:54:30.217Z,76.30
2017-08-05T04:56:57.798Z,76.10
2017-08-05T04:59:25.340Z,75.70
2017-08-05T05:01:52.877Z,75.10
2017-08-05T05:04:20.439Z,74.60
2017-08-05T05:06:49.301Z,63.10
2017-08-05T05:09:16.887Z,63.00
2017-08-05T05:11:44.455Z,46.60
2017-08-05T05:14:12.019Z,36.30
2017-08-05T05:16:40.345Z,29.80
2017-08-05T05:19:07.912Z,26.10
2017-08-05T05:21:35.507Z,24.70
2017-08-05T05:24:03.061Z,28.40
2017-08-05T05:26:30.605Z,35.10
2017-08-05T05:28:58.168Z,41.10
2017-08-05T05:31:27.609Z,36.20
2017-08-05T05:33:56.394Z,28.70
2017-08-05T05:36:23.987Z,24.40
2017-08-05T05:38:51.567Z,21.80
2017-08-05T05:41:23.256Z,17.80
2017-08-05T05:43:51.218Z,17.50
2017-08-05T05:46:18.780Z,16.10
2017-08-05T05:48:47.090Z,14.10
2017-08-05T05:51:15.457Z,14.10
2017-08-05T05:53:44.933Z,13.20
2017-08-05T05:56:12.486Z,13.20
2017-08-05T05:58:40.032Z,12.60
2017-08-05T06:01:07.573Z,11.50
2017-08-05T06:03:35.112Z,11.10
2017-08-05T06:06:03.418Z,10.20
2017-08-05T06:08:30.966Z,10.10
2017-08-05T06:10:59.348Z,9.00
2017-08-05T06:13:27.762Z,8.80
2017-08-05T06:15:55.289Z,8.80
2017-08-05T06:18:23.601Z,9.00
2017-08-05T06:20:52.034Z,9.00
2017-08-05T06:23:19.594Z,8.50
2017-08-05T06:25:47.190Z,7.50
2017-08-05T06:28:16.422Z,6.80
2017-08-05T06:30:43.998Z,6.80
2017-08-05T06:33:11.543Z,6.10
2017-08-05T06:35:39.103Z,6.10
2017-08-05T06:38:06.645Z,5.90
2017-08-05T06:40:37.426Z,6.20
2017-08-05T06:43:04.949Z,6.20
2017-08-05T06:45:34.030Z,7.80
2017-08-05T06:48:01.575Z,7.20
2017-08-05T06:50:29.101Z,9.70
2017-08-05T06:52:56.673Z,10.00
2017-08-05T06:55:24.290Z,11.10
2017-08-05T06:57:51.854Z,11.90
2017-08-05T07:00:19.493Z,14.50
2017-08-05T07:02:47.050Z,15.60
2017-08-05T07:05:14.602Z,16.90
2017-08-05T07:07:42.737Z,18.30
2017-08-05T07:10:10.990Z,19.90
2017-08-05T07:12:40.468Z,21.70
2017-08-05T07:15:08.069Z,23.00
2017-08-05T07:17:36.351Z,22.80
2017-08-05T07:20:03.904Z,22.90
2017-08-05T07:22:31.487Z,22.90
2017-08-05T07:24:59.042Z,22.00
2017-08-05T07:27:26.583Z,23.10
2017-08-05T07:29:54.231Z,24.70
2017-08-05T07:32:22.240Z,25.90
2017-08-05T07:34:49.895Z,27.10
2017-08-05T07:37:18.067Z,26.00
2017-08-05T07:39:45.633Z,25.20
2017-08-05T07:42:18.028Z,24.60
2017-08-05T07:44:45.598Z,24.10
2017-08-05T07:47:13.139Z,23.20
2017-08-05T07:49:40.678Z,23.10
2017-08-05T07:52:08.202Z,24.40
2017-08-05T07:54:35.751Z,25.90
2017-08-05T07:57:03.325Z,25.50
2017-08-05T07:59:30.876Z,24.40
2017-08-05T08:01:58.430Z,23.50
2017-08-05T08:04:25.964Z,22.60
2017-08-05T08:06:54.297Z,22.20
2017-08-05T08:09:21.860Z,22.00
2017-08-05T08:11:49.848Z,22.90
2017-08-05T08:14:18.216Z,20.30
2017-08-05T08:16:45.793Z,20.30
2017-08-05T08:19:13.341Z,20.80
2017-08-05T08:21:40.906Z,21.60
2017-08-05T08:24:08.527Z,21.60
2017-08-05T08:26:36.822Z,21.30
2017-08-05T08:29:04.381Z,20.80
2017-08-05T08:31:36.541Z,22.60
2017-08-05T08:34:04.871Z,21.70
2017-08-05T08:36:32.427Z,21.70
2017-08-05T08:39:00.044Z,22.30
2017-08-05T08:41:29.383Z,21.60
2017-08-05T08:43:57.002Z,21.50
2017-08-05T08:46:24.541Z,20.40
2017-08-05T08:48:52.125Z,22.00
2017-08-05T08:51:19.652Z,20.80
2017-08-05T08:53:47.273Z,20.20
2017-08-05T08:56:15.591Z,21.00
2017-08-05T08:58:43.147Z,20.80
2017-08-05T09:01:11.662Z,21.60
2017-08-05T09:03:39.224Z,20.40
2017-08-05T09:06:06.772Z,20.10
2017-08-05T09:08:34.326Z,20.40
2017-08-05T09:11:01.885Z,19.70
2017-08-05T09:13:30.205Z,20.30
2017-08-05T09:15:57.817Z,20.20
2017-08-05T09:18:26.146Z,20.70
2017-08-05T09:20:53.814Z,20.10
2017-08-05T09:23:21.365Z,19.00
2017-08-05T09:25:49.393Z,19.00
2017-08-05T09:28:16.944Z,19.80
2017-08-05T09:30:44.537Z,21.70
2017-08-05T09:33:12.871Z,19.90
2017-08-05T09:35:40.404Z,19.90
2017-08-05T09:38:08.726Z,20.60
2017-08-05T09:40:36.265Z,20.50
2017-08-05T09:43:03.841Z,21.30
2017-08-05T09:45:31.388Z,20.20
2017-08-05T09:47:58.937Z,18.50
2017-08-05T09:50:27.260Z,17.80
2017-08-05T09:52:54.818Z,17.80
2017-08-05T09:55:22.364Z,17.80
2017-08-05T09:57:49.899Z,18.30
2017-08-05T10:00:18.235Z,20.40
2017-08-05T10:02:45.832Z,20.40
2017-08-05T10:05:13.400Z,20.20
2017-08-05T10:07:40.933Z,19.40
2017-08-05T10:10:08.516Z,18.00
2017-08-05T10:12:36.060Z,18.30
2017-08-05T10:15:03.646Z,18.70
2017-08-05T10:17:31.212Z,18.10
2017-08-05T10:19:58.774Z,17.30
2017-08-05T10:22:26.520Z,18.80
2017-08-05T10:24:54.085Z,18.30
2017-08-05T10:27:21.625Z,17.20
2017-08-05T10:29:49.174Z,18.10
2017-08-05T10:32:18.089Z,17.80
2017-08-05T10:34:45.665Z,17.20
2017-08-05T10:37:13.226Z,16.80
2017-08-05T10:39:40.779Z,16.50
2017-08-05T10:42:08.382Z,17.50
2017-08-05T10:44:35.933Z,17.60
2017-08-05T10:47:03.481Z,17.50
2017-08-05T10:49:31.012Z,17.30
2017-08-05T10:51:59.376Z,17.00
2017-08-05T10:54:26.905Z,17.20
2017-08-05T10:56:54.487Z,19.20
2017-08-05T10:59:22.082Z,18.40
2017-08-05T11:01:49.630Z,17.90
2017-08-05T11:04:17.177Z,18.50
2017-08-05T11:06:44.706Z,18.40
2017-08-05T11:09:12.261Z,18.70
2017-08-05T11:11:40.586Z,19.00
2017-08-05T11:14:08.149Z,19.00
2017-08-05T11:16:35.697Z,18.50
2017-08-05T11:19:04.588Z,17.60
2017-08-05T11:21:32.149Z,17.80
2017-08-05T11:23:59.729Z,18.10
2017-08-05T11:26:27.274Z,18.20
2017-08-05T11:28:54.830Z,17.80
2017-08-05T11:31:22.385Z,18.20
2017-08-05T11:33:50.721Z,18.50
2017-08-05T11:36:18.278Z,18.50
2017-08-05T11:38:45.839Z,18.70
2017-08-05T11:41:13.405Z,17.70
2017-08-05T11:43:41.000Z,18.10
2017-08-05T11:46:08.521Z,18.10
2017-08-05T11:48:36.063Z,18.10
2017-08-05T11:51:04.399Z,17.90
2017-08-05T11:53:31.950Z,17.90
2017-08-05T11:55:59.498Z,17.60
2017-08-05T11:58:27.063Z,18.40
2017-08-05T12:00:54.641Z,19.80
2017-08-05T12:03:22.174Z,19.40
2017-08-05T12:05:49.732Z,18.90
2017-08-05T12:08:18.029Z,19.10
2017-08-05T12:10:45.591Z,19.10
2017-08-05T12:13:13.147Z,18.10
2017-08-05T12:15:41.462Z,20.90
2017-08-05T12:18:09.000Z,20.90
2017-08-05T12:20:36.854Z,20.80
2017-08-05T12:23:05.142Z,19.80
2017-08-05T12:25:33.460Z,19.10
2017-08-05T12:28:01.130Z,19.00
2017-08-05T12:30:28.663Z,19.30
2017-08-05T12:32:56.237Z,19.40
2017-08-05T12:35:23.798Z,19.70
2017-08-05T12:37:51.351Z,20.10
2017-08-05T12:40:18.872Z,19.30
2017-08-05T12:42:46.442Z,19.30
2017-08-05T12:45:13.994Z,17.70
2017-08-05T12:47:41.563Z,17.90
2017-08-05T12:50:09.073Z,18.60
2017-08-05T12:52:37.402Z,18.80
2017-08-05T12:55:04.959Z,18.80
2017-08-05T12:57:32.518Z,18.50
2017-08-05T13:00:00.075Z,18.50
2017-08-05T13:02:27.627Z,18.60
2017-08-05T13:04:55.182Z,18.80
2017-08-05T13:07:23.483Z,18.90
2017-08-05T13:09:51.030Z,18.90
2017-08-05T13:12:18.573Z,18.50
2017-08-05T13:14:46.162Z,18.80
2017-08-05T13:17:14.476Z,18.30
2017-08-05T13:19:42.941Z,18.30
2017-08-05T13:22:10.491Z,19.60
2017-08-05T13:24:38.058Z,20.40
2017-08-05T13:27:05.609Z,20.30
2017-08-05T13:29:33.919Z,19.70
2017-08-05T13:32:01.515Z,19.70
2017-08-05T13:34:29.075Z,19.30
2017-08-05T13:36:56.637Z,18.70
2017-08-05T13:39:24.157Z,18.70
2017-08-05T13:41:52.580Z,18.60
2017-08-05T13:44:20.136Z,18.30
2017-08-05T13:46:47.684Z,18.70
2017-08-05T13:49:15.262Z,19.10
2017-08-05T13:51:42.851Z,19.40
2017-08-05T13:54:10.399Z,19.50
2017-08-05T13:56:37.974Z,19.80
2017-08-05T13:59:05.518Z,19.90
2017-08-05T14:01:33.047Z,20.10
2017-08-05T14:04:01.525Z,20.00
2017-08-05T14:06:29.861Z,20.50
2017-08-05T14:08:57.412Z,20.50
2017-08-05T14:11:24.942Z,20.50
2017-08-05T14:13:53.279Z,20.60
2017-08-05T14:16:20.809Z,20.50
2017-08-05T14:18:48.353Z,21.10
2017-08-05T14:21:16.675Z,22.60
2017-08-05T14:23:44.260Z,22.20
2017-08-05T14:26:11.785Z,23.20
2017-08-05T14:28:39.329Z,22.60
2017-08-05T14:31:07.652Z,21.40
2017-08-05T14:33:35.196Z,21.30
2017-08-05T14:36:02.788Z,20.60
2017-08-05T14:38:30.351Z,19.20
2017-08-05T14:40:57.916Z,20.50
2017-08-05T14:43:25.457Z,19.00
2017-08-05T14:45:53.010Z,18.80
2017-08-05T14:48:21.333Z,19.20
2017-08-05T14:50:48.886Z,19.10
2017-08-05T14:53:16.418Z,19.40
2017-08-05T14:55:44.002Z,19.10
2017-08-05T14:58:11.550Z,19.70
2017-08-05T15:00:39.870Z,20.00
2017-08-05T15:03:07.439Z,20.00
2017-08-05T15:05:36.909Z,20.40
2017-08-05T15:08:04.466Z,20.60
2017-08-05T15:10:32.802Z,22.30
2017-08-05T15:13:00.360Z,22.30
2017-08-05T15:15:27.877Z,22.00
2017-08-05T15:17:56.204Z,21.10
2017-08-05T15:20:23.755Z,21.10
2017-08-05T15:22:51.279Z,20.50
2017-08-05T15:25:19.618Z,21.30
2017-08-05T15:27:47.147Z,21.30
2017-08-05T15:30:14.706Z,22.20
2017-08-05T15:32:42.288Z,21.80
2017-08-05T15:35:09.861Z,22.10
2017-08-05T15:37:37.406Z,21.60
2017-08-05T15:40:04.973Z,21.40
2017-08-05T15:42:32.543Z,22.00
2017-08-05T15:45:00.081Z,21.60
2017-08-05T15:47:27.669Z,21.70
2017-08-05T15:49:55.234Z,22.30
2017-08-05T15:52:22.805Z,22.90
2017-08-05T15:54:50.332Z,23.90
2017-08-05T15:57:19.253Z,23.60
2017-08-05T15:59:46.773Z,23.60
2017-08-05T16:02:14.345Z,23.00
2017-08-05T16:04:41.893Z,23.30
2017-08-05T16:07:09.533Z,24.00
2017-08-05T16:09:37.126Z,24.00
2017-08-05T16:12:04.690Z,24.10
2017-08-05T16:14:32.235Z,23.60
2017-08-05T16:16:59.773Z,23.90
2017-08-05T16:19:27.331Z,23.80
2017-08-05T16:21:55.627Z,23.80
2017-08-05T16:24:23.182Z,23.80
2017-08-05T16:26:50.727Z,23.80
2017-08-05T16:29:18.276Z,23.80
2017-08-05T16:31:46.661Z,24.30
2017-08-05T16:34:14.656Z,23.70
2017-08-05T16:36:42.958Z,23.80
2017-08-05T16:39:10.523Z,23.90
2017-08-05T16:41:38.126Z,24.20
2017-08-05T16:44:05.684Z,24.20
2017-08-05T16:46:33.242Z,23.60
2017-08-05T16:49:00.795Z,23.50
2017-08-05T16:51:28.369Z,23.50
2017-08-05T16:53:55.920Z,24.00
2017-08-05T16:56:23.477Z,24.80
2017-08-05T16:58:51.027Z,25.10
2017-08-05T17:01:18.594Z,25.00
2017-08-05T17:03:46.118Z,25.10
2017-08-05T17:06:13.678Z,25.40
2017-08-05T17:08:41.230Z,25.80
2017-08-05T17:11:08.813Z,26.50
2017-08-05T17:13:36.376Z,26.60
2017-08-05T17:16:03.932Z,27.00
2017-08-05T17:18:31.493Z,27.30
2017-08-05T17:20:59.054Z,27.90
2017-08-05T17:23:26.609Z,28.00
2017-08-05T17:25:54.181Z,27.80
2017-08-05T17:28:21.724Z,28.10
2017-08-05T17:30:49.272Z,28.40
2017-08-05T17:33:16.816Z,28.40
2017-08-05T17:35:44.343Z,28.70
2017-08-05T17:38:11.907Z,28.80
2017-08-05T17:40:40.452Z,28.60
2017-08-05T17:43:08.024Z,28.50
2017-08-05T17:45:35.592Z,28.70
2017-08-05T17:48:03.151Z,28.80
2017-08-05T17:50:31.470Z,30.50
2017-08-05T17:52:59.715Z,30.50
2017-08-05T17:55:27.273Z,31.90
2017-08-05T17:57:55.587Z,33.90
2017-08-05T18:00:23.145Z,33.90
2017-08-05T18:02:50.706Z,34.20
2017-08-05T18:05:18.265Z,35.00
2017-08-05T18:07:45.832Z,35.90
2017-08-05T18:10:13.375Z,36.50
2017-08-05T18:12:40.916Z,37.10
2017-08-05T18:15:08.466Z,37.50
2017-08-05T18:17:36.008Z,38.60
2017-08-05T18:20:03.585Z,38.40
2017-08-05T18:22:31.140Z,39.20
2017-08-05T18:24:58.686Z,39.70
2017-08-05T18:27:26.238Z,40.60
2017-08-05T18:29:53.792Z,41.30
2017-08-05T18:32:22.113Z,42.50
2017-08-05T18:34:49.647Z,42.50
2017-08-05T18:37:17.215Z,42.80
2017-08-05T18:39:44.761Z,42.70
2017-08-05T18:42:12.327Z,43.50
2017-08-05T18:44:40.644Z,44.50
2017-08-05T18:47:08.199Z,44.40
2017-08-05T18:49:35.731Z,45.00
2017-08-05T18:52:04.067Z,46.20
2017-08-05T18:54:31.621Z,46.10
2017-08-05T18:56:59.911Z,46.80
2017-08-05T18:59:27.480Z,46.80
2017-08-05T19:01:55.034Z,47.20
2017-08-05T19:04:22.604Z,47.50
2017-08-05T19:06:50.137Z,47.70
2017-08-05T19:09:18.462Z,48.70
2017-08-05T19:11:45.990Z,49.30
2017-08-05T19:14:13.554Z,48.80
2017-08-05T19:16:41.844Z,49.60
2017-08-05T19:19:09.428Z,49.60
2017-08-05T19:21:36.974Z,49.90
2017-08-05T19:24:04.520Z,50.30
2017-08-05T19:26:33.380Z,50.70
2017-08-05T19:29:00.947Z,50.70
2017-08-05T19:31:29.482Z,50.70
2017-08-05T19:33:57.014Z,51.40
2017-08-05T19:36:24.581Z,52.00
2017-08-05T19:38:52.889Z,52.90
2017-08-05T19:41:20.458Z,52.90
2017-08-05T19:43:48.018Z,53.00
2017-08-05T19:46:15.601Z,52.90
2017-08-05T19:48:43.134Z,53.10
2017-08-05T19:51:10.722Z,53.20
2017-08-05T19:53:38.254Z,53.40
2017-08-05T19:56:06.572Z,54.10
2017-08-05T19:58:34.108Z,53.50
2017-08-05T20:01:01.697Z,53.50
2017-08-05T20:03:29.244Z,53.40
2017-08-05T20:05:56.770Z,53.60
2017-08-05T20:08:24.339Z,53.70
2017-08-05T20:10:51.889Z,53.90
2017-08-05T20:13:19.456Z,53.90
2017-08-05T20:15:47.744Z,54.20
2017-08-05T20:18:15.307Z,54.20
2017-08-05T20:20:42.837Z,54.60
2017-08-05T20:23:10.382Z,53.90
2017-08-05T20:25:37.918Z,53.80
2017-08-05T20:28:05.468Z,53.60
2017-08-05T20:30:33.007Z,53.30
2017-08-05T20:33:03.792Z,52.80
2017-08-05T20:35:32.092Z,54.50
2017-08-05T20:37:59.651Z,53.80
2017-08-05T20:40:27.979Z,52.60
2017-08-05T20:42:55.512Z,52.50
2017-08-05T20:45:23.069Z,52.20
2017-08-05T20:47:51.365Z,51.20
2017-08-05T20:50:18.973Z,51.20
2017-08-05T20:52:46.533Z,51.00
2017-08-05T20:55:14.124Z,51.10
2017-08-05T20:57:42.459Z,50.70
2017-08-05T21:00:10.013Z,50.70
2017-08-05T21:02:37.542Z,50.40
2017-08-05T21:05:05.102Z,50.60
2017-08-05T21:07:32.641Z,50.60
2017-08-05T21:10:00.205Z,50.20
2017-08-05T21:12:27.737Z,50.00
2017-08-05T21:14:55.307Z,49.70
2017-08-05T21:17:22.870Z,49.60
2017-08-05T21:19:50.435Z,49.60
2017-08-05T21:22:17.997Z,49.60
2017-08-05T21:24:45.543Z,49.60
2017-08-05T21:27:13.875Z,50.00
2017-08-05T21:29:41.423Z,50.00
2017-08-05T21:32:11.003Z,50.10
2017-08-05T21:34:38.564Z,50.10
2017-08-05T21:37:06.892Z,50.40
2017-08-05T21:39:35.372Z,50.40
2017-08-05T21:42:02.936Z,50.30
2017-08-05T21:44:30.516Z,50.40
2017-08-05T21:46:58.095Z,51.40
2017-08-05T21:49:25.656Z,51.20
2017-08-05T21:51:53.267Z,50.90
2017-08-05T21:54:20.821Z,50.90
2017-08-05T21:56:49.135Z,51.40
2017-08-05T21:59:16.694Z,51.40
2017-08-05T22:01:44.306Z,51.50
2017-08-05T22:04:11.942Z,51.70
2017-08-05T22:06:39.491Z,51.80
2017-08-05T22:09:07.113Z,52.00
2017-08-05T22:11:34.705Z,52.30
2017-08-05T22:14:02.273Z,53.20
2017-08-05T22:16:29.815Z,52.50
2017-08-05T22:18:58.145Z,53.50
2017-08-05T22:21:25.677Z,52.80
2017-08-05T22:23:54.005Z,52.30
2017-08-05T22:26:21.554Z,52.30
2017-08-05T22:28:49.105Z,52.50
2017-08-05T22:31:16.657Z,53.10
2017-08-05T22:33:44.251Z,53.30
2017-08-05T22:36:11.787Z,53.40
2017-08-05T22:38:39.386Z,52.90
2017-08-05T22:41:06.932Z,51.10
2017-08-05T22:43:34.460Z,50.50
2017-08-05T22:46:02.023Z,48.50
2017-08-05T22:48:29.570Z,46.60
2017-08-05T22:50:57.135Z,45.70
2017-08-05T22:53:24.696Z,45.80
2017-08-05T22:55:52.285Z,45.70
2017-08-05T22:58:19.837Z,45.20
2017-08-05T23:00:47.422Z,44.60
2017-08-05T23:03:14.969Z,44.00
2017-08-05T23:05:42.545Z,43.90
2017-08-05T23:08:10.084Z,43.90
2017-08-05T23:10:37.661Z,43.90
2017-08-05T23:13:05.710Z,43.80
2017-08-05T23:15:33.343Z,44.30
2017-08-05T23:18:00.883Z,44.90
2017-08-05T23:20:28.434Z,44.90
2017-08-05T23:22:55.994Z,44.80
2017-08-05T23:25:23.554Z,44.90
2017-08-05T23:27:51.131Z,45.10
2017-08-05T23:30:18.665Z,44.90
2017-08-05T23:32:46.211Z,44.40
2017-08-05T23:35:14.087Z,44.90
2017-08-05T23:37:42.888Z,46.30
2017-08-05T23:40:10.478Z,45.60
2017-08-05T23:42:38.036Z,45.80
2017-08-05T23:45:05.606Z,46.20
2017-08-05T23:47:33.181Z,47.10
2017-08-05T23:50:02.951Z,48.10
2017-08-05T23:52:30.717Z,47.80
2017-08-05T23:54:58.265Z,47.70
2017-08-05T23:57:26.620Z,47.60
2017-08-05T23:59:54.148Z,47.60
